Time;durP1;ratioP1;P1;durP2;ratioP2;P2;SDS_P1;SDS_P2;PMS_P1;PMS_P2;Temp;Humidity;BMP_temperature;BMP_pressure;BME280_temperature;BME280_humidity;BME280_pressure;Samples;Min_cycle;Max_cycle;Signal;HPM_P1;HPM_P2
2021/12/25 00:01:20;;;;;;;;;;;-1.40;99.90;;;;;;4989927;28;19912;-54
2021/12/25 00:03:46;;;;;;;;;;;-1.50;99.90;;;;;;4989416;28;19917;-55
2021/12/25 00:06:12;;;;;;;;;;;-1.50;99.90;;;;;;4991702;28;19910;-51
2021/12/25 00:08:37;;;;;;;;;;;-1.50;99.90;;;;;;4992525;28;19961;-52
2021/12/25 00:11:04;;;;;;;;;;;-1.50;99.90;;;;;;4991667;28;20190;-52
2021/12/25 00:13:30;;;;;;;;;;;-1.50;99.90;;;;;;4990901;28;20244;-53
2021/12/25 00:15:56;;;;;;;;;;;-1.50;99.90;;;;;;4992033;28;19905;-54
2021/12/25 00:18:21;;;;;;;;;;;-1.50;99.90;;;;;;4974228;28;19909;-55
2021/12/25 00:20:47;;;;;;;;;;;-1.50;99.90;;;;;;4990320;28;19910;-55
2021/12/25 00:23:13;;;;;;;;;;;-1.50;99.90;;;;;;4992020;28;20187;-51
2021/12/25 00:25:43;;;;;;;;;;;-1.50;99.90;;;;;;4990861;28;20176;-54
2021/12/25 00:33:54;;;;;;;;;;;-1.60;99.90;;;;;;4990262;28;19972;-49
2021/12/25 00:36:20;;;;;;;;;;;-1.60;99.90;;;;;;4989764;28;20299;-53
2021/12/25 00:38:46;;;;;;;;;;;-1.60;99.90;;;;;;4990330;28;19913;-53
2021/12/25 00:41:14;;;;;;;;;;;-1.60;99.90;;;;;;4991201;28;19996;-54
2021/12/25 00:43:39;;;;;;;;;;;-1.60;99.90;;;;;;4991506;28;20000;-53
2021/12/25 00:46:05;;;;;;;;;;;-1.70;99.90;;;;;;4992398;28;20000;-49
2021/12/25 00:48:30;;;;;;;;;;;-1.70;99.90;;;;;;4992745;28;19909;-52
2021/12/25 00:50:56;;;;;;;;;;;-1.70;99.90;;;;;;4990827;28;19949;-51
2021/12/25 00:53:22;;;;;;;;;;;-1.70;99.90;;;;;;4991295;28;19949;-49
2021/12/25 00:55:48;;;;;;;;;;;-1.70;99.90;;;;;;4990591;28;20246;-49
2021/12/25 00:58:14;;;;;;;;;;;-1.70;99.90;;;;;;4989669;28;20259;-51
2021/12/25 01:00:40;;;;;;;;;;;-1.70;99.90;;;;;;4992664;28;19905;-53
2021/12/25 01:03:06;;;;;;;;;;;-1.70;99.90;;;;;;4989346;28;20011;-51
2021/12/25 01:05:33;;;;;;;;;;;-1.70;99.90;;;;;;4991549;28;19914;-53
2021/12/25 01:07:58;;;;;;;;;;;-1.70;99.90;;;;;;4991189;28;20265;-57
2021/12/25 01:10:23;;;;;;;;;;;-1.70;99.90;;;;;;4992589;28;20326;-51
2021/12/25 01:13:03;;;;;;;;;;;-1.80;99.90;;;;;;4992632;28;19909;-52
2021/12/25 01:15:39;;;;;;;;;;;-1.90;99.90;;;;;;4994216;28;20009;-52
2021/12/25 01:21:15;;;;;;;;;;;-2.00;99.90;;;;;;4996004;28;20011;-53
2021/12/25 01:23:59;;;;;;;;;;;-2.00;99.90;;;;;;4993913;28;19936;-53
2021/12/25 01:29:27;;;;;;;;;;;-1.90;99.90;;;;;;4996433;28;20004;-48
2021/12/25 01:37:39;;;;;;;;;;;-1.90;99.90;;;;;;4996736;28;20480;-52
2021/12/25 01:48:16;;;;;;;;;;;-2.00;99.90;;;;;;4995555;28;19916;-50
2021/12/25 01:50:42;;;;;;;;;;;-2.10;99.90;;;;;;4994032;28;20114;-55
2021/12/25 01:53:07;;;;;;;;;;;-2.10;99.90;;;;;;4992826;28;19918;-54
2021/12/25 01:55:33;;;;;;;;;;;-2.10;99.90;;;;;;4995156;28;20274;-54
2021/12/25 01:57:59;;;;;;;;;;;-2.10;99.90;;;;;;4993143;28;19968;-53
2021/12/25 02:00:34;;;;;;;;;;;-2.10;99.90;;;;;;4992786;28;20282;-52
2021/12/25 02:03:00;;;;;;;;;;;-2.10;99.90;;;;;;4993471;28;19984;-53
2021/12/25 02:05:25;;;;;;;;;;;-2.10;99.90;;;;;;4993042;28;19917;-54
2021/12/25 02:07:50;;;;;;;;;;;-2.00;99.90;;;;;;4993163;28;19917;-55
2021/12/25 02:10:16;;;;;;;;;;;-2.20;99.90;;;;;;4992546;28;19906;-50
2021/12/25 02:12:42;;;;;;;;;;;-2.10;99.90;;;;;;4994011;28;20183;-53
2021/12/25 02:15:13;;;;;;;;;;;-2.10;99.90;;;;;;4994134;28;19906;-54
2021/12/25 02:20:39;;;;;;;;;;;-2.20;99.90;;;;;;4993722;28;19984;-52
2021/12/25 02:23:16;;;;;;;;;;;-2.20;99.90;;;;;;4995393;28;19941;-52
2021/12/25 02:25:43;;;;;;;;;;;-2.20;99.90;;;;;;4993692;28;19945;-53
2021/12/25 02:28:10;;;;;;;;;;;-2.40;99.90;;;;;;4993852;28;20179;-54
2021/12/25 02:30:36;;;;;;;;;;;-2.40;99.90;;;;;;4994253;28;19906;-49
2021/12/25 02:33:01;;;;;;;;;;;-2.30;99.90;;;;;;4994355;28;19914;-52
2021/12/25 02:35:27;;;;;;;;;;;-2.40;99.90;;;;;;4994649;28;19953;-56
2021/12/25 02:37:52;;;;;;;;;;;-2.50;99.90;;;;;;4994342;28;19975;-54
2021/12/25 02:40:18;;;;;;;;;;;-2.40;99.90;;;;;;4995101;28;19917;-52
2021/12/25 02:42:43;;;;;;;;;;;-2.30;99.90;;;;;;4993017;28;19905;-50
2021/12/25 02:45:15;;;;;;;;;;;-2.30;99.90;;;;;;4996838;28;19913;-51
2021/12/25 02:47:43;;;;;;;;;;;-2.20;99.90;;;;;;4995358;28;19987;-54
2021/12/25 02:50:08;;;;;;;;;;;-2.20;99.90;;;;;;4993689;28;19968;-53
2021/12/25 02:52:35;;;;;;;;;;;-2.20;99.90;;;;;;4994430;28;19925;-50
2021/12/25 02:55:01;;;;;;;;;;;-2.20;99.90;;;;;;4995318;28;20278;-56
2021/12/25 02:57:26;;;;;;;;;;;-2.30;99.90;;;;;;4995310;28;19905;-56
2021/12/25 02:59:51;;;;;;;;;;;-2.30;99.90;;;;;;4993698;28;20047;-53
2021/12/25 03:02:17;;;;;;;;;;;-2.30;99.90;;;;;;4994051;28;19996;-52
2021/12/25 03:04:45;;;;;;;;;;;-2.30;99.90;;;;;;4993916;28;20293;-53
2021/12/25 03:07:11;;;;;;;;;;;-2.30;99.90;;;;;;4994830;28;19920;-52
2021/12/25 03:09:37;;;;;;;;;;;-2.30;99.90;;;;;;4996004;28;19918;-52
2021/12/25 03:12:05;;;;;;;;;;;-2.30;99.90;;;;;;4994276;28;20043;-54
2021/12/25 03:14:37;;;;;;;;;;;-2.30;99.90;;;;;;4995962;28;20000;-53
2021/12/25 03:17:03;;;;;;;;;;;-2.40;99.90;;;;;;4993844;28;19937;-51
2021/12/25 03:19:33;;;;;;;;;;;-2.40;99.90;;;;;;4993984;28;19910;-52
2021/12/25 03:21:59;;;;;;;;;;;-2.30;99.90;;;;;;4994856;28;19945;-51
2021/12/25 03:24:25;;;;;;;;;;;-2.30;99.90;;;;;;4993635;28;19909;-53
2021/12/25 03:26:54;;;;;;;;;;;-2.30;99.90;;;;;;4992601;28;19909;-50
2021/12/25 03:29:20;;;;;;;;;;;-2.40;99.90;;;;;;4991663;28;20195;-52
2021/12/25 03:31:46;;;;;;;;;;;-2.30;99.90;;;;;;4992327;28;20271;-52
2021/12/25 03:34:11;;;;;;;;;;;-2.40;99.90;;;;;;4992554;28;19963;-56
2021/12/25 03:36:37;;;;;;;;;;;-2.40;99.90;;;;;;4993305;28;19917;-52
2021/12/25 03:39:02;;;;;;;;;;;-2.40;99.90;;;;;;4993216;28;19913;-52
2021/12/25 03:41:28;;;;;;;;;;;-2.40;99.90;;;;;;4994350;28;19906;-52
2021/12/25 03:43:53;;;;;;;;;;;-2.40;99.90;;;;;;4994856;28;20151;-55
2021/12/25 03:46:19;;;;;;;;;;;-2.40;99.90;;;;;;4993203;28;20206;-54
2021/12/25 03:59:12;;;;;;;;;;;-2.60;99.90;;;;;;4990601;28;19913;-53
2021/12/25 04:06:34;;;;;;;;;;;-2.60;99.90;;;;;;4990938;28;19935;-54
2021/12/25 04:09:01;;;;;;;;;;;-2.60;99.90;;;;;;4974997;28;19933;-48
2021/12/25 04:11:30;;;;;;;;;;;-2.60;99.90;;;;;;4974291;28;19910;-52
2021/12/25 04:13:56;;;;;;;;;;;-2.60;99.90;;;;;;4974788;28;19910;-51
2021/12/25 04:16:22;;;;;;;;;;;-2.60;99.90;;;;;;4973594;28;20015;-56
2021/12/25 04:18:48;;;;;;;;;;;-2.50;99.90;;;;;;4974245;28;19913;-54
2021/12/25 04:21:14;;;;;;;;;;;-2.50;99.90;;;;;;4975136;28;19988;-56
2021/12/25 04:23:41;;;;;;;;;;;-2.50;99.90;;;;;;4976936;28;20385;-54
2021/12/25 04:26:07;;;;;;;;;;;-2.60;99.90;;;;;;4976190;28;19914;-51
2021/12/25 04:28:46;;;;;;;;;;;-2.60;99.90;;;;;;4975069;28;19906;-52
2021/12/25 05:01:42;;;;;;;;;;;-2.80;99.90;;;;;;4994071;28;19940;-57
2021/12/25 05:01:48;;;;;;;;;;;-2.80;99.90;;;;;;4997975;28;19917;-55
2021/12/25 05:04:19;;;;;;;;;;;-2.80;99.90;;;;;;4996345;28;20000;-54
2021/12/25 05:06:45;;;;;;;;;;;-2.80;99.90;;;;;;4996414;28;19959;-52
2021/12/25 05:09:10;;;;;;;;;;;-2.80;99.90;;;;;;4996821;28;20175;-56
2021/12/25 05:11:35;;;;;;;;;;;-2.80;99.90;;;;;;4996236;28;19909;-56
2021/12/25 05:14:01;;;;;;;;;;;-2.80;99.90;;;;;;4995946;28;19906;-56
2021/12/25 05:16:26;;;;;;;;;;;-2.90;99.90;;;;;;4996542;28;19905;-51
2021/12/25 05:18:52;;;;;;;;;;;-2.90;99.90;;;;;;4995695;28;19909;-55
2021/12/25 05:21:19;;;;;;;;;;;-2.90;99.90;;;;;;4996589;28;19909;-53
2021/12/25 05:23:44;;;;;;;;;;;-2.90;99.90;;;;;;4995884;28;20251;-55
2021/12/25 05:26:10;;;;;;;;;;;-2.90;99.90;;;;;;4993049;28;19956;-53
2021/12/25 05:28:40;;;;;;;;;;;-2.90;99.90;;;;;;4995856;28;20048;-54
2021/12/25 05:31:07;;;;;;;;;;;-2.90;99.90;;;;;;4996470;28;19956;-51
2021/12/25 05:33:32;;;;;;;;;;;-2.90;99.90;;;;;;4996386;28;19913;-54
2021/12/25 05:35:58;;;;;;;;;;;-2.90;99.90;;;;;;4995382;28;20198;-56
2021/12/25 05:38:24;;;;;;;;;;;-2.90;99.90;;;;;;4994324;28;19906;-53
2021/12/25 05:40:50;;;;;;;;;;;-2.90;99.90;;;;;;4993444;28;19910;-52
2021/12/25 05:43:16;;;;;;;;;;;-3.00;99.90;;;;;;4994137;28;19914;-56
2021/12/25 05:45:42;;;;;;;;;;;-3.00;99.90;;;;;;4995214;28;19913;-51
2021/12/25 05:48:08;;;;;;;;;;;-3.00;99.90;;;;;;4993617;28;19909;-54
2021/12/25 05:50:33;;;;;;;;;;;-3.00;99.90;;;;;;4993345;28;19909;-56
2021/12/25 05:52:58;;;;;;;;;;;-3.00;99.90;;;;;;4994446;28;20008;-56
2021/12/25 05:55:24;;;;;;;;;;;-3.10;99.90;;;;;;4994555;28;20175;-54
2021/12/25 05:57:50;;;;;;;;;;;-3.10;99.90;;;;;;4993704;28;20032;-55
2021/12/25 06:00:16;;;;;;;;;;;-3.10;99.90;;;;;;4994879;28;19906;-57
2021/12/25 06:02:43;;;;;;;;;;;-3.00;99.90;;;;;;4992788;28;20283;-56
2021/12/25 06:05:08;;;;;;;;;;;-3.00;99.90;;;;;;4991991;28;19932;-54
2021/12/25 06:07:34;;;;;;;;;;;-3.10;99.90;;;;;;4991700;28;20167;-54
2021/12/25 06:09:59;;;;;;;;;;;-3.10;99.90;;;;;;4991739;28;20208;-56
2021/12/25 06:12:25;;;;;;;;;;;-3.10;99.90;;;;;;4991886;28;19925;-56
2021/12/25 06:14:53;;;;;;;;;;;-3.10;99.90;;;;;;4991282;28;20349;-56
2021/12/25 06:17:18;;;;;;;;;;;-3.10;99.90;;;;;;4989995;28;20334;-55
2021/12/25 06:19:44;;;;;;;;;;;-3.20;99.90;;;;;;4990056;28;20008;-57
2021/12/25 06:22:09;;;;;;;;;;;-3.10;99.90;;;;;;4990920;28;20004;-54
2021/12/25 06:24:35;;;;;;;;;;;-3.10;99.90;;;;;;4993042;28;20016;-56
2021/12/25 06:27:01;;;;;;;;;;;-3.20;99.90;;;;;;4991720;28;19912;-52
2021/12/25 06:29:26;;;;;;;;;;;-3.10;99.90;;;;;;4991975;28;19984;-52
2021/12/25 06:31:52;;;;;;;;;;;-3.10;99.90;;;;;;4990784;28;19910;-54
2021/12/25 06:34:19;;;;;;;;;;;-3.10;99.90;;;;;;4991187;28;20008;-57
2021/12/25 06:36:44;;;;;;;;;;;-3.20;99.90;;;;;;4996795;28;19910;-54
2021/12/25 06:39:15;;;;;;;;;;;-3.10;99.90;;;;;;4995034;28;19912;-56
2021/12/25 06:41:41;;;;;;;;;;;-3.10;99.90;;;;;;4994269;28;19906;-55
2021/12/25 06:44:06;;;;;;;;;;;-3.20;99.90;;;;;;4993908;28;19980;-55
2021/12/25 06:46:32;;;;;;;;;;;-3.20;99.90;;;;;;4992765;28;19909;-59
2021/12/25 06:48:57;;;;;;;;;;;-3.20;99.90;;;;;;4990741;28;20165;-57
2021/12/25 06:51:23;;;;;;;;;;;-3.20;99.90;;;;;;4990734;28;19921;-57
2021/12/25 06:53:48;;;;;;;;;;;-3.30;99.90;;;;;;4990164;28;20294;-53
2021/12/25 06:56:14;;;;;;;;;;;-3.30;99.90;;;;;;4990484;28;19988;-55
2021/12/25 06:58:39;;;;;;;;;;;-3.30;99.90;;;;;;4991396;28;19967;-56
2021/12/25 07:01:05;;;;;;;;;;;-3.30;99.90;;;;;;4992476;28;20139;-54
2021/12/25 07:03:30;;;;;;;;;;;-3.30;99.90;;;;;;4991245;28;19909;-53
2021/12/25 07:05:56;;;;;;;;;;;-3.30;99.90;;;;;;4990912;28;19909;-52
2021/12/25 07:08:21;;;;;;;;;;;-3.30;99.90;;;;;;4991919;28;19917;-56
2021/12/25 07:10:47;;;;;;;;;;;-3.40;99.90;;;;;;4980476;28;19960;-57
2021/12/25 07:13:17;;;;;;;;;;;-3.40;99.90;;;;;;4976954;28;20334;-57
2021/12/25 07:15:42;;;;;;;;;;;-3.40;99.90;;;;;;4975362;28;19917;-56
2021/12/25 07:18:08;;;;;;;;;;;-3.40;99.90;;;;;;4976045;28;19910;-57
2021/12/25 07:20:34;;;;;;;;;;;-3.40;99.90;;;;;;4976673;28;19910;-55
2021/12/25 07:23:00;;;;;;;;;;;-3.40;99.90;;;;;;4976853;28;19929;-56
2021/12/25 07:25:26;;;;;;;;;;;-3.50;99.90;;;;;;4975777;28;19914;-55
2021/12/25 07:27:52;;;;;;;;;;;-3.50;99.90;;;;;;4976716;28;19917;-55
2021/12/25 07:30:33;;;;;;;;;;;-3.40;99.90;;;;;;4977349;28;19906;-54
2021/12/25 07:32:58;;;;;;;;;;;-3.50;99.90;;;;;;4977025;28;19914;-54
2021/12/25 07:35:25;;;;;;;;;;;-3.50;99.90;;;;;;4992257;28;19914;-57
2021/12/25 07:37:51;;;;;;;;;;;-3.40;99.90;;;;;;4993738;28;19913;-55
2021/12/25 07:40:16;;;;;;;;;;;-3.50;99.90;;;;;;4992607;28;19909;-56
2021/12/25 07:42:41;;;;;;;;;;;-3.40;99.90;;;;;;4993703;28;19941;-56
2021/12/25 07:45:08;;;;;;;;;;;-3.40;99.90;;;;;;4992512;28;19905;-57
2021/12/25 07:47:35;;;;;;;;;;;-3.40;99.90;;;;;;4993158;28;19927;-54
2021/12/25 07:50:01;;;;;;;;;;;-3.50;99.90;;;;;;4991337;28;20199;-57
2021/12/25 07:52:27;;;;;;;;;;;-3.50;99.90;;;;;;4991833;28;19918;-56
2021/12/25 07:54:52;;;;;;;;;;;-3.50;99.90;;;;;;4993386;28;19916;-55
2021/12/25 07:57:18;;;;;;;;;;;-3.50;99.90;;;;;;4990429;28;20144;-57
2021/12/25 07:59:43;;;;;;;;;;;-3.50;99.90;;;;;;4992194;28;20245;-53
2021/12/25 08:02:09;;;;;;;;;;;-3.50;99.90;;;;;;4990443;28;20382;-53
2021/12/25 08:04:34;;;;;;;;;;;-3.50;99.90;;;;;;4981348;28;19920;-50
2021/12/25 08:07:00;;;;;;;;;;;-3.50;99.90;;;;;;4975272;28;19997;-53
2021/12/25 08:09:29;;;;;;;;;;;-3.50;99.90;;;;;;4974137;28;20157;-52
2021/12/25 08:11:59;;;;;;;;;;;-3.40;99.90;;;;;;4970238;28;19917;-54
2021/12/25 08:14:25;;;;;;;;;;;-3.50;99.90;;;;;;4969731;28;19981;-54
2021/12/25 08:16:58;;;;;;;;;;;-3.50;99.90;;;;;;4971394;28;19908;-55
2021/12/25 08:19:23;;;;;;;;;;;-3.40;99.90;;;;;;4969090;28;20067;-56
2021/12/25 08:21:49;;;;;;;;;;;-3.40;99.90;;;;;;4971576;28;19918;-55
2021/12/25 08:24:16;;;;;;;;;;;-3.40;99.90;;;;;;4971851;28;20107;-51
2021/12/25 08:26:42;;;;;;;;;;;-3.40;99.90;;;;;;4974328;28;19917;-54
2021/12/25 08:29:07;;;;;;;;;;;-3.40;99.90;;;;;;4977111;28;19906;-52
2021/12/25 08:31:32;;;;;;;;;;;-3.40;99.90;;;;;;4976097;28;20187;-55
2021/12/25 08:33:58;;;;;;;;;;;-3.40;99.90;;;;;;4973147;28;19909;-53
2021/12/25 08:36:24;;;;;;;;;;;-3.30;99.90;;;;;;4974059;28;19910;-57
2021/12/25 08:38:50;;;;;;;;;;;-3.40;99.90;;;;;;4974361;28;19925;-55
2021/12/25 08:41:15;;;;;;;;;;;-3.40;99.90;;;;;;4973431;28;19906;-53
2021/12/25 08:43:47;;;;;;;4.33;1.77;;;-3.30;99.90;;;;;;4972097;28;19971;-55
2021/12/25 08:46:18;;;;;;;3.53;1.95;;;-3.30;99.90;;;;;;4970655;28;20400;-55
2021/12/25 08:48:45;;;;;;;5.10;2.50;;;-3.30;99.90;;;;;;4969980;28;20703;-54
2021/12/25 08:51:11;;;;;;;4.93;2.33;;;-3.30;99.90;;;;;;4969464;28;20436;-54
2021/12/25 08:53:38;;;;;;;6.03;2.50;;;-3.60;99.90;;;;;;4986886;28;20427;-53
2021/12/25 08:56:03;;;;;;;3.30;2.10;;;-3.60;99.90;;;;;;4972360;28;20384;-52
2021/12/25 08:58:31;;;;;;;3.72;2.33;;;-3.50;99.90;;;;;;4972476;28;20629;-55
2021/12/25 09:01:01;;;;;;;4.38;2.30;;;-3.30;99.90;;;;;;4971092;28;20400;-53
2021/12/25 09:03:28;;;;;;;3.80;2.15;;;-3.20;99.90;;;;;;4970681;28;20442;-57
2021/12/25 09:05:56;;;;;;;4.68;2.13;;;-3.10;99.90;;;;;;4970484;28;20619;-55
2021/12/25 09:08:21;;;;;;;3.13;2.00;;;-3.00;99.90;;;;;;4970031;28;20785;-56
2021/12/25 09:10:47;;;;;;;3.65;1.92;;;-2.90;99.90;;;;;;4970494;28;20733;-53
2021/12/25 09:13:13;;;;;;;2.97;2.15;;;-2.70;99.90;;;;;;4970471;28;20533;-54
2021/12/25 09:15:38;;;;;;;4.50;2.25;;;-2.30;99.90;;;;;;4969218;28;20389;-55
2021/12/25 09:18:04;;;;;;;4.70;2.10;;;-1.60;99.90;;;;;;4969483;28;20411;-53
2021/12/25 09:20:29;;;;;;;4.50;2.20;;;-0.70;99.90;;;;;;4985286;28;20388;-54
2021/12/25 09:22:57;;;;;;;3.75;2.00;;;-0.30;99.90;;;;;;4970698;28;20396;-55
2021/12/25 09:25:24;;;;;;;4.47;2.00;;;0.20;99.90;;;;;;4973323;28;20423;-57
2021/12/25 09:27:49;;;;;;;3.55;1.98;;;0.80;99.90;;;;;;4974855;28;20518;-54
2021/12/25 09:30:16;;;;;;;2.30;1.60;;;1.40;99.90;;;;;;4988962;28;20782;-54
2021/12/25 09:32:42;;;;;;;3.50;2.00;;;1.60;99.90;;;;;;4973909;28;20211;-56
2021/12/25 09:35:08;;;;;;;;;;;1.40;99.90;;;;;;4974198;28;20026;-55
2021/12/25 09:37:33;;;;;;;;;;;1.20;99.90;;;;;;4972981;28;19906;-53
2021/12/25 09:39:59;;;;;;;;;;;0.90;99.90;;;;;;4974002;28;19906;-52
2021/12/25 09:42:26;;;;;;;;;;;0.50;99.90;;;;;;4972552;28;19913;-54
2021/12/25 09:44:55;;;;;;;;;;;0.20;99.90;;;;;;4971835;28;19905;-56
2021/12/25 09:47:21;;;;;;;;;;;-0.60;99.90;;;;;;4970803;28;19913;-60
2021/12/25 09:49:46;;;;;;;;;;;-0.80;99.90;;;;;;4971318;28;20008;-60
2021/12/25 09:52:12;;;;;;;;;;;-1.10;99.90;;;;;;4973690;28;19933;-53
2021/12/25 09:54:38;;;;;;;;;;;-1.20;99.90;;;;;;4973978;28;19921;-53
2021/12/25 09:57:03;;;;;;;;;;;-1.10;99.90;;;;;;4974614;28;19928;-56
2021/12/25 09:59:29;;;;;;;;;;;-1.00;99.90;;;;;;4973535;28;20012;-55
2021/12/25 10:01:56;;;;;;;;;;;-0.90;99.90;;;;;;4973586;28;19906;-57
2021/12/25 10:04:36;;;;;;;;;;;-0.90;99.90;;;;;;4974746;28;19960;-54
2021/12/25 10:07:13;;;;;;;;;;;-0.80;99.90;;;;;;4974517;28;19910;-51
2021/12/25 10:09:38;;;;;;;;;;;-0.70;99.90;;;;;;4974602;28;20229;-56
2021/12/25 10:12:07;;;;;;;;;;;-0.70;99.90;;;;;;4974409;28;20203;-51
2021/12/25 10:14:33;;;;;;;;;;;-0.90;99.90;;;;;;4969617;28;19994;-53
2021/12/25 10:17:06;;;;;;;;;;;-0.80;99.90;;;;;;4969720;28;19924;-53
2021/12/25 10:19:31;;;;;;;;;;;-0.70;99.90;;;;;;4967182;28;20244;-51
2021/12/25 10:22:07;;;;;;;;;;;-0.60;99.90;;;;;;4968144;28;19921;-53
2021/12/25 10:24:40;;;;;;;;;;;-0.70;99.90;;;;;;4969221;28;19906;-54
2021/12/25 10:27:11;;;;;;;;;;;-0.80;99.90;;;;;;4966155;28;19906;-51
2021/12/25 10:29:37;;;;;;;;;;;-0.70;99.90;;;;;;4968048;28;19921;-51
2021/12/25 10:32:13;;;;;;;;;;;-0.60;99.90;;;;;;4966051;28;19910;-52
2021/12/25 10:34:39;;;;;;;;;;;-0.60;99.90;;;;;;4966799;28;19988;-52
2021/12/25 10:37:09;;;;;;;;;;;-0.40;99.90;;;;;;4984136;28;20133;-53
2021/12/25 10:39:35;;;;;;;;;;;-0.20;99.90;;;;;;4983310;28;20353;-54
2021/12/25 10:42:07;;;;;;;;;;;-0.10;99.90;;;;;;4986260;28;19997;-52
2021/12/25 10:44:33;;;;;;;;;;;-0.40;99.90;;;;;;4984144;28;19913;-53
2021/12/25 10:47:00;;;;;;;;;;;-0.30;99.90;;;;;;4985640;28;20282;-54
2021/12/25 10:49:28;;;;;;;;;;;-0.30;99.90;;;;;;4986052;28;20370;-55
2021/12/25 10:51:54;;;;;;;;;;;-0.40;99.90;;;;;;4989871;28;20166;-56
2021/12/25 10:54:33;;;;;;;;;;;-0.30;99.90;;;;;;4989253;28;19960;-56
2021/12/25 10:57:00;;;;;;;;;;;-0.30;99.90;;;;;;4951657;28;22449;-53
2021/12/25 10:59:40;;;;;;;;;;;-0.20;99.90;;;;;;4954683;28;20299;-51
2021/12/25 11:02:06;;;;;;;;;;;0.00;99.90;;;;;;4953157;28;20084;-51
2021/12/25 11:04:36;;;;;;;4.30;1.97;;;0.20;99.90;;;;;;4951745;28;20052;-51
2021/12/25 11:07:16;;;;;;;6.07;2.20;;;0.40;99.90;;;;;;4952283;28;20180;-52
2021/12/25 11:10:08;;;;;;;3.57;2.27;;;0.40;99.90;;;;;;4952744;28;20180;-53
2021/12/25 11:12:34;;;;;;;4.13;2.63;;;0.40;99.90;;;;;;4969166;28;20505;-51
2021/12/25 11:15:09;;;;;;;5.17;2.03;;;0.60;99.90;;;;;;4951431;28;20474;-54
2021/12/25 11:17:39;;;;;;;4.80;2.60;;;0.60;99.90;;;;;;4953470;28;20202;-48
2021/12/25 11:20:05;;;;;;;3.63;2.03;;;0.70;99.90;;;;;;4951871;28;20176;-52
2021/12/25 11:22:49;;;;;;;2.77;2.07;;;0.50;99.90;;;;;;4952389;28;20239;-50
2021/12/25 11:25:16;;;;;;;4.17;2.53;;;0.20;99.90;;;;;;4949476;28;20219;-52
2021/12/25 11:27:42;;;;;;;5.78;2.55;;;0.00;99.90;;;;;;4964602;28;20640;-48
2021/12/25 11:30:08;;;;;;;4.00;2.30;;;0.40;99.90;;;;;;4949775;28;20309;-54
2021/12/25 11:32:34;;;;;;;4.03;1.97;;;0.70;99.90;;;;;;4950358;28;20200;-50
2021/12/25 11:34:59;;;;;;;;;;;0.90;99.90;;;;;;4951287;28;20303;-53
2021/12/25 11:37:25;;;;;;;;;;;1.10;99.90;;;;;;4952098;28;19906;-55
2021/12/25 11:39:53;;;;;;;4.13;2.50;;;1.00;99.90;;;;;;4952037;28;20178;-53
2021/12/25 11:42:20;;;;;;;5.03;1.70;;;0.50;99.90;;;;;;4958239;28;20163;-54
2021/12/25 11:44:55;;;;;;;3.43;1.83;;;0.30;99.90;;;;;;4957438;28;20230;-57
2021/12/25 11:47:39;;;;;;;2.53;1.50;;;0.20;99.90;;;;;;4955889;28;20214;-53
2021/12/25 11:50:22;;;;;;;2.10;1.60;;;0.50;99.90;;;;;;4955951;28;20244;-54
2021/12/25 11:53:05;;;;;;;;;;;0.80;99.90;;;;;;4954117;28;20043;-54
2021/12/25 11:58:16;;;;;;;;;;;1.30;99.90;;;;;;4971958;28;20072;-51
2021/12/25 12:00:49;;;;;;;;;;;1.30;99.90;;;;;;4971280;28;19914;-51
2021/12/25 12:03:33;;;;;;;;;;;1.10;99.90;;;;;;4954931;28;19944;-54
2021/12/25 12:05:58;;;;;;;;;;;0.90;99.90;;;;;;4971435;28;19914;-54
2021/12/25 12:08:25;;;;;;;2.93;1.20;;;1.10;99.90;;;;;;4953387;28;20208;-56
2021/12/25 12:10:57;;;;;;;4.33;1.43;;;1.30;99.90;;;;;;4969807;28;20180;-53
2021/12/25 12:13:29;;;;;;;;;;;1.50;99.90;;;;;;4970939;28;20030;-55
2021/12/25 12:15:56;;;;;;;;;;;2.00;99.90;;;;;;4952044;28;19906;-54
2021/12/25 12:18:32;;;;;;;;;;;2.30;99.90;;;;;;4952781;28;19906;-54
2021/12/25 12:21:10;;;;;;;;;;;2.60;99.90;;;;;;4968340;28;19972;-54
2021/12/25 12:26:40;;;;;;;;;;;2.80;99.90;;;;;;4986342;28;19997;-54
2021/12/25 12:29:06;;;;;;;;;;;2.80;99.90;;;;;;4973677;28;20255;-51
2021/12/25 12:31:40;;;;;;;;;;;2.90;99.90;;;;;;4988809;28;19912;-54
2021/12/25 12:34:24;;;;;;;;;;;2.50;99.90;;;;;;4973696;28;19905;-53
2021/12/25 12:36:50;;;;;;;;;;;2.80;99.90;;;;;;4973459;28;19913;-53
2021/12/25 12:39:20;;;;;;;;;;;3.00;99.90;;;;;;4990690;28;19912;-55
2021/12/25 12:41:53;;;;;;;;;;;2.80;99.90;;;;;;4972200;28;19905;-56
2021/12/25 12:44:26;;;;;;;;;;;2.00;99.90;;;;;;4990513;28;20283;-52
2021/12/25 12:46:52;;;;;;;;;;;2.20;99.90;;;;;;4971440;28;19921;-51
2021/12/25 12:49:19;;;;;;;;;;;2.20;99.90;;;;;;4970220;28;19913;-52
2021/12/25 12:51:45;;;;;;;;;;;2.20;99.90;;;;;;4971183;28;19914;-51
2021/12/25 12:54:31;;;;;;;;;;;2.40;99.90;;;;;;4971287;28;20276;-55
2021/12/25 12:57:00;;;;;;;;;;;2.60;99.90;;;;;;4973125;28;20047;-53
2021/12/25 12:59:40;;;;;;;;;;;2.80;99.90;;;;;;4971581;28;19929;-56
2021/12/25 13:02:05;;;;;;;;;;;2.70;99.90;;;;;;4972858;28;19914;-50
2021/12/25 13:04:40;;;;;;;;;;;2.30;99.90;;;;;;4971568;28;20337;-54
2021/12/25 13:07:17;;;;;;;;;;;1.60;99.90;;;;;;4966046;28;20325;-53
2021/12/25 13:09:52;;;;;;;;;;;1.50;99.90;;;;;;4981239;28;19967;-53
2021/12/25 13:15:10;;;;;;;;;;;1.10;99.90;;;;;;4969448;28;19972;-55
2021/12/25 13:17:36;;;;;;;;;;;1.00;99.90;;;;;;4969451;28;19906;-54
2021/12/25 13:20:02;;;;;;;;;;;1.10;99.90;;;;;;4970967;28;19910;-53
2021/12/25 13:22:28;;;;;;;;;;;1.50;99.90;;;;;;4968546;28;20220;-53
2021/12/25 13:25:03;;;;;;;;;;;1.60;99.90;;;;;;4969007;28;19906;-53
2021/12/25 13:27:28;;;;;;;;;;;2.00;99.90;;;;;;4970946;28;19933;-53
2021/12/25 13:29:53;;;;;;;;;;;2.20;99.90;;;;;;4970467;28;19913;-55
2021/12/25 13:32:23;;;;;;;;;;;2.50;99.90;;;;;;4970819;28;19910;-53
2021/12/25 13:34:49;;;;;;;;;;;2.70;99.90;;;;;;4969780;28;20118;-52
2021/12/25 13:37:16;;;;;;;;;;;2.80;99.90;;;;;;4970274;28;20148;-54
2021/12/25 13:39:42;;;;;;;;;;;2.70;99.90;;;;;;4969806;28;19961;-53
2021/12/25 13:42:09;;;;;;;;;;;2.50;99.90;;;;;;4970921;28;19960;-55
2021/12/25 13:44:35;;;;;;;;;;;2.50;99.90;;;;;;4970837;28;19906;-52
2021/12/25 13:47:03;;;;;;;;;;;2.30;99.90;;;;;;4976233;28;20239;-52
2021/12/25 13:49:28;;;;;;;;;;;2.10;99.90;;;;;;4976656;28;20342;-52
2021/12/25 13:51:54;;;;;;;;;;;2.40;99.90;;;;;;4976118;28;20025;-53
2021/12/25 13:54:20;;;;;;;;;;;2.70;99.90;;;;;;4974464;28;19910;-53
2021/12/25 13:56:46;;;;;;;;;;;2.30;99.90;;;;;;4975105;28;19937;-53
2021/12/25 13:59:12;;;;;;;;;;;2.30;99.90;;;;;;4974547;28;20263;-53
2021/12/25 14:01:57;;;;;;;;;;;2.60;99.90;;;;;;4974809;28;19941;-54
2021/12/25 14:04:22;;;;;;;;;;;2.90;99.90;;;;;;4973146;28;19918;-53
2021/12/25 14:06:48;;;;;;;;;;;3.30;99.90;;;;;;4974540;28;19937;-54
2021/12/25 14:09:14;;;;;;;;;;;3.60;99.90;;;;;;4973921;28;20235;-56
2021/12/25 14:11:46;;;;;;;;;;;3.80;99.90;;;;;;4972712;28;20451;-54
2021/12/25 14:14:12;;;;;;;;;;;3.80;99.90;;;;;;4969823;28;19913;-53
2021/12/25 14:16:38;;;;;;;;;;;3.50;99.90;;;;;;4968469;28;19909;-51
2021/12/25 14:19:09;;;;;;;;;;;3.60;99.90;;;;;;4969093;28;19964;-50
2021/12/25 14:21:35;;;;;;;;;;;3.70;99.90;;;;;;4969759;28;19910;-52
2021/12/25 14:24:02;;;;;;;;;;;3.90;99.90;;;;;;4967084;28;19906;-50
2021/12/25 14:26:28;;;;;;;;;;;3.80;99.90;;;;;;4967991;28;19914;-54
2021/12/25 14:28:53;;;;;;;;;;;3.60;99.90;;;;;;4967959;28;19973;-54
2021/12/25 14:31:19;;;;;;;;;;;3.50;99.90;;;;;;4969521;28;19913;-51
2021/12/25 14:33:50;;;;;;;;;;;3.60;99.90;;;;;;4969355;28;19914;-52
2021/12/25 14:36:15;;;;;;;;;;;3.40;99.90;;;;;;4967442;28;19914;-56
2021/12/25 14:38:42;;;;;;;;;;;3.10;99.90;;;;;;4968165;28;19913;-56
2021/12/25 14:41:08;;;;;;;;;;;2.90;99.90;;;;;;4968825;28;20000;-54
2021/12/25 14:43:34;;;;;;;;;;;2.50;99.90;;;;;;4970612;28;19906;-54
2021/12/25 14:46:00;;;;;;;;;;;2.40;99.90;;;;;;4971431;28;19913;-55
2021/12/25 14:48:34;;;;;;;;;;;2.20;99.90;;;;;;4980857;28;19917;-52
2021/12/25 14:51:05;;;;;;;;;;;2.00;99.90;;;;;;4992433;28;20077;-50
2021/12/25 14:53:30;;;;;;;;;;;2.00;99.90;;;;;;4995841;28;19917;-54
2021/12/25 14:56:05;;;;;;;;;;;1.70;99.90;;;;;;4997072;28;19924;-55
2021/12/25 14:58:32;;;;;;;;;;;1.60;99.90;;;;;;4996414;28;20167;-56
2021/12/25 15:01:18;;;;;;;;;;;1.50;99.90;;;;;;4994724;28;19909;-54
2021/12/25 15:03:45;;;;;;;;;;;1.30;99.90;;;;;;4985409;28;19976;-52
2021/12/25 15:06:19;;;;;;;;;;;1.30;99.90;;;;;;4975976;28;19910;-53
2021/12/25 15:08:57;;;;;;;;;;;1.30;99.90;;;;;;4975124;28;19906;-53
2021/12/25 15:11:23;;;;;;;;;;;1.20;99.90;;;;;;4975455;28;20296;-53
2021/12/25 15:14:00;;;;;;;;;;;1.20;99.90;;;;;;4974250;28;20369;-55
2021/12/25 15:16:44;;;;;;;;;;;1.10;99.90;;;;;;4975464;28;19960;-52
2021/12/25 15:19:19;;;;;;;;;;;1.10;99.90;;;;;;4973596;28;19917;-53
2021/12/25 15:21:45;;;;;;;;;;;1.10;99.90;;;;;;4972908;28;19910;-52
2021/12/25 15:24:13;;;;;;;;;;;1.20;99.90;;;;;;4972543;28;19952;-54
2021/12/25 15:26:40;;;;;;;;;;;1.30;99.90;;;;;;4972076;28;19906;-52
2021/12/25 15:29:14;;;;;;;;;;;1.40;99.90;;;;;;4974778;28;19960;-53
2021/12/25 15:31:39;;;;;;;;;;;1.50;99.90;;;;;;4973368;28;19916;-53
2021/12/25 15:34:09;;;;;;;;;;;1.50;99.90;;;;;;4973237;28;20000;-51